Terminal Aerodrome Forecast
Issued by NWS

Home | Current Version | Previous Version | Text Only | Print | Product List | Glossary On
Versions: 1 2 3 4 5 6 7 8 9 10 11 12 13 14 15 16 17 18 19 20 21
000
FTUS41 KAKQ 110600 AAA
TAFPHF
TAF AMD
KPHF 110647Z 1107/1206 VRB03KT 5SM BR BKN012
      TEMPO 1107/1110 3SM BR SCT012
     FM111500 05006KT P6SM OVC020
     FM111600 09009KT P6SM BKN050=

USA.gov is the U.S. government's official web portal to all federal, state and local government web resources and services.